EA5CEE Santa Pola ES current weather conditions

sailwx.info

Wind from 061 at 3 knots gusting 4

Air temperature 12.8° C
Dewpoint 12.0° C

Last reported at 2020-Feb-18 23:45 UTC.
Time now 2020-Feb-19 00:46 UTC

Location: N 38°13' W 000°31'.
View on Google Maps.

See reports from other nearby stations

  
Tides and Currents Weather Stations Pressure Air Temp Water Temp Dewpoint Dewpoint Depression Visibility Wind Speed Wind Dir Waves Ship Positions
date/time (UTC)wind fromknots sea level pressurealtimeterstation pressurevisibilityair tempwater tempwave heightnotes
2020-Feb-18 23:45 061 3 gusting 4 12.8
2020-Feb-18 23:30 051 3 gusting 5 12.8
2020-Feb-18 23:01 051 6 gusting 7 12.8
2020-Feb-18 22:46 060 4 gusting 6 12.8
2020-Feb-18 22:31 060 5 gusting 7 12.8
2020-Feb-18 22:16 043 3 gusting 7 12.8
2020-Feb-18 22:01 047 4 gusting 7 12.8
2020-Feb-18 21:46 050 4 gusting 6 12.8
2020-Feb-18 21:31 021 5 gusting 7 12.8
2020-Feb-18 21:16 035 5 gusting 7 12.8
2020-Feb-18 21:00 036 5 gusting 7 12.8
2020-Feb-18 20:46 357 5 gusting 8 12.8
2020-Feb-18 20:16 035 6 gusting 8 12.8
2020-Feb-18 20:01 046 3 gusting 6 12.8
2020-Feb-18 19:46 060 10 gusting 12 12.8
2020-Feb-18 19:31 065 6 gusting 12 12.8
2020-Feb-18 19:17 070 6 gusting 11 12.8
2020-Feb-18 18:46 072 4 gusting 6 12.8
2020-Feb-18 18:31 070 5 gusting 8 12.8
2020-Feb-18 18:16 060 5 gusting 9 12.8
2020-Feb-18 18:00 051 4 gusting 9 12.2
2020-Feb-18 17:46 046 3 gusting 6 12.2
2020-Feb-18 17:31 045 4 gusting 9 12.2
2020-Feb-18 17:16 025 6 gusting 11 12.2
2020-Feb-18 17:02 034 5 gusting 10 12.2
2020-Feb-18 16:45 053 5 gusting 7 12.8
2020-Feb-18 16:30 042 6 gusting 10 12.8
2020-Feb-18 16:17 063 4 gusting 7 12.8
2020-Feb-18 16:00 071 3 gusting 10 12.8
2020-Feb-18 15:46 102 5 gusting 9 12.8
2020-Feb-18 15:31 022 6 gusting 9 12.8
2020-Feb-18 15:16 027 5 gusting 9 12.8
2020-Feb-18 15:01 057 4 gusting 9 12.8
2020-Feb-18 14:45 053 6 gusting 10 12.8
2020-Feb-18 14:31 001 6 gusting 10 12.8
2020-Feb-18 14:16 051 6 gusting 12 12.8
2020-Feb-18 14:00 067 8 gusting 12 12.8
2020-Feb-18 13:45 079 12 gusting 13 12.8
2020-Feb-18 13:30 070 10 gusting 13 12.8
2020-Feb-18 13:16 075 10 gusting 14 12.8
2020-Feb-18 13:00 057 11 gusting 15 13.3
2020-Feb-18 12:45 063 9 gusting 13 13.9
2020-Feb-18 12:30 044 7 gusting 14 13.9
2020-Feb-18 12:15 057 8 gusting 13 13.9
2020-Feb-18 12:00 088 9 gusting 13 13.9
2020-Feb-18 11:45 059 10 gusting 16 13.9
2020-Feb-18 11:31 059 12 13.9
2020-Feb-18 11:15 067 12 gusting 16 13.9
2020-Feb-18 11:00 059 6 gusting 11 14.4
2020-Feb-18 10:45 046 2 gusting 6 13.9
2020-Feb-18 10:30 061 3 gusting 6 13.9
2020-Feb-18 10:15 038 3 gusting 6 13.9
2020-Feb-18 10:00 025 2 gusting 6 13.9
2020-Feb-18 09:45 046 4 gusting 6 13.9
2020-Feb-18 09:30 036 4 gusting 7 13.9
2020-Feb-18 09:15 063 6 gusting 11 13.9
2020-Feb-18 09:01 065 6 gusting 8 13.9
2020-Feb-18 08:45 018 4 gusting 6 13.9
2020-Feb-18 08:30 070 3 gusting 6 13.9
2020-Feb-18 08:15 056 5 gusting 7 13.9
2020-Feb-18 08:00 092 6 gusting 11 13.9
2020-Feb-18 07:46 019 5 gusting 9 13.9
2020-Feb-18 07:32 041 6 gusting 10 13.9
2020-Feb-18 07:18 070 8 gusting 12 13.9
2020-Feb-18 07:01 060 9 gusting 15 13.9
2020-Feb-18 06:46 072 11 gusting 17 14.4
2020-Feb-18 06:32 088 14 gusting 18 14.4
2020-Feb-18 06:16 088 16 gusting 20 14.4
2020-Feb-18 06:02 089 16 gusting 19 14.4
2020-Feb-18 05:46 098 14 gusting 19 14.4
2020-Feb-18 05:31 059 13 gusting 19 14.4
2020-Feb-18 05:16 074 13 gusting 19 14.4
2020-Feb-18 05:01 074 18 gusting 22 14.4
2020-Feb-18 04:46 074 16 gusting 20 13.9
2020-Feb-18 04:31 078 16 gusting 20 13.9
2020-Feb-18 04:16 068 14 gusting 20 13.9
2020-Feb-18 04:01 082 14 gusting 20 13.9
2020-Feb-18 03:46 105 14 gusting 22 13.9
2020-Feb-18 03:31 079 14 gusting 20 13.9
2020-Feb-18 03:15 061 15 gusting 20 13.9
2020-Feb-18 03:03 086 13 gusting 21 14.4
2020-Feb-18 02:30 056 19 gusting 26 14.4
2020-Feb-18 02:17 060 19 gusting 25 14.4
2020-Feb-18 02:01 063 10 gusting 13 13.9
2020-Feb-18 01:45 065 10 gusting 13 13.9
2020-Feb-18 01:30 070 11 gusting 13 13.9
2020-Feb-18 01:15 077 10 gusting 13 13.9
2020-Feb-18 01:00 041 5 gusting 10 13.9
2020-Feb-18 00:45 050 5 gusting 8 13.9
2020-Feb-18 00:30 038 5 gusting 7 13.9
2020-Feb-18 00:15 046 5 gusting 7 13.9
2020-Feb-18 00:00 027 4 gusting 6 13.9
2020-Feb-17 23:45 046 3 gusting 6 13.9
2020-Feb-17 23:30 029 5 gusting 8 13.9
2020-Feb-17 23:15 026 5 gusting 7 13.3
2020-Feb-17 23:02 037 4 gusting 6 13.9
2020-Feb-17 22:46 041 4 gusting 6 13.9
2020-Feb-17 22:32 041 3 gusting 5 13.9
2020-Feb-17 22:16 049 3 gusting 5 13.9
2020-Feb-17 22:01 047 4 gusting 5 13.9
2020-Feb-17 21:46 065 2 gusting 4 13.9
2020-Feb-17 21:31 044 1 gusting 5 14.4
2020-Feb-17 21:16 034 1 gusting 4 15.0
2020-Feb-17 21:02 305 3 gusting 6 16.7
2020-Feb-17 20:46 276 4 gusting 8 17.2
2020-Feb-17 20:31 300 5 gusting 10 17.2
2020-Feb-17 20:16 280 6 gusting 11 17.2
2020-Feb-17 20:01 289 4 gusting 8 17.2
2020-Feb-17 19:46 276 6 gusting 10 17.8
2020-Feb-17 19:31 293 4 gusting 6 16.7
2020-Feb-17 19:16 288 2 gusting 5 16.1
2020-Feb-17 19:01 267 13.9
2020-Feb-17 18:45 030 0 gusting 3 15.0
2020-Feb-17 18:31 060 0 gusting 2 15.0
2020-Feb-17 18:17 305 16.1
2020-Feb-17 18:01 256 2 gusting 4 16.7
2020-Feb-17 17:45 203 0 gusting 3 16.1
2020-Feb-17 17:31 228 3 gusting 4 17.2
2020-Feb-17 17:16 186 17.8
2020-Feb-17 17:01 235 5 gusting 7 17.8
2020-Feb-17 16:46 184 4 gusting 7 18.3
2020-Feb-17 16:31 204 6 gusting 9 17.8
2020-Feb-17 16:01 234 6 gusting 11 17.8
2020-Feb-17 15:46 227 2 gusting 8 18.3
2020-Feb-17 15:30 217 6 gusting 11 17.8
2020-Feb-17 15:15 215 7 gusting 10 18.3
2020-Feb-17 15:01 212 6 gusting 10 18.3
2020-Feb-17 14:46 198 6 gusting 12 17.8
2020-Feb-17 14:30 215 7 gusting 13 17.8
2020-Feb-17 14:16 224 6 gusting 12 17.2
2020-Feb-17 14:01 218 7 gusting 10 17.2
2020-Feb-17 13:45 201 6 gusting 11 17.2
2020-Feb-17 13:31 217 4 gusting 8 17.8
2020-Feb-17 13:15 221 4 gusting 6 18.3
2020-Feb-17 13:00 214 3 gusting 6 17.8
2020-Feb-17 12:46 250 3 gusting 6 17.2
2020-Feb-17 12:30 221 5 gusting 7 17.2
2020-Feb-17 12:15 266 3 gusting 6 16.7
2020-Feb-17 12:00 207 2 gusting 6 16.7
2020-Feb-17 11:45 226 2 gusting 6 16.1
2020-Feb-17 11:32 248 2 gusting 6 16.1
2020-Feb-17 11:17 243 4 gusting 6 15.0
2020-Feb-17 11:01 228 3 gusting 6 15.0
2020-Feb-17 10:46 249 4 gusting 6 14.4
2020-Feb-17 10:31 242 3 gusting 6 14.4
2020-Feb-17 10:16 239 3 gusting 4 13.9
2020-Feb-17 10:01 217 1 gusting 6 13.3
2020-Feb-17 09:46 243 1 gusting 5 12.2
2020-Feb-17 09:31 242 3 gusting 6 11.1
2020-Feb-17 09:15 233 2 gusting 6 11.1
2020-Feb-17 09:00 231 5 gusting 8 10.6
2020-Feb-17 08:46 232 5 gusting 7 10.0
2020-Feb-17 08:30 231 3 gusting 6 10.0
2020-Feb-17 08:16 235 4 gusting 6 10.0
2020-Feb-17 08:01 248 6 gusting 7 9.4
2020-Feb-17 07:45 235 4 gusting 6 8.9
2020-Feb-17 07:31 235 3 gusting 5 8.3
2020-Feb-17 07:15 235 1 gusting 3 8.3
2020-Feb-17 07:00 212 3 gusting 4 8.3
2020-Feb-17 06:46 252 2 gusting 6 8.3
2020-Feb-17 06:30 239 5 gusting 6 8.3
2020-Feb-17 06:16 249 3 gusting 6 8.3
2020-Feb-17 06:00 214 3 gusting 5 8.3
2020-Feb-17 05:45 252 1 gusting 4 8.9
2020-Feb-17 05:30 245 3 gusting 4 9.4
2020-Feb-17 05:16 253 0 gusting 4 10.0
2020-Feb-17 05:00 235 2 gusting 5 10.0
2020-Feb-17 04:45 238 3 gusting 5 10.0
2020-Feb-17 04:30 224 3 gusting 6 9.4
2020-Feb-17 04:15 236 2 gusting 4 10.0
2020-Feb-17 04:00 276 3 gusting 6 10.0
2020-Feb-17 03:45 221 4 gusting 6 10.6
2020-Feb-17 03:30 233 5 gusting 6 10.0
2020-Feb-17 03:15 212 6 gusting 8 10.6
2020-Feb-17 03:00 225 5 gusting 7 10.6
2020-Feb-17 02:46 216 2 gusting 5 11.1
2020-Feb-17 02:31 221 3 gusting 5 10.6
2020-Feb-17 02:17 214 4 gusting 6 10.6
2020-Feb-17 02:01 210 5 gusting 6 10.6
2020-Feb-17 01:47 219 5 gusting 7 11.1
2020-Feb-17 01:31 214 4 gusting 5 11.1
2020-Feb-17 01:17 242 10.6
2020-Feb-17 01:01 233 11.1
2020-Feb-17 00:46 252 11.7
2020-Feb-17 00:31 252 11.7
2020-Feb-17 00:16 263 11.7
2020-Feb-17 00:02 204 2 gusting 3 11.7